Time;durP1;ratioP1;P1;durP2;ratioP2;P2;SDS_P1;SDS_P2;PMS_P1;PMS_P2;Temp;Humidity;BMP_temperature;BMP_pressure;BME280_temperature;BME280_humidity;BME280_pressure;Samples;Min_cycle;Max_cycle;Signal;HPM_P1;HPM_P2
2022/03/15 00:02:20;;;;;;;29.23;19.05;;;;;;;7.31;87.43;102695.66;5035008;28;20041;-58
2022/03/15 00:04:46;;;;;;;33.70;20.77;;;;;;;7.32;87.66;102700.03;5035523;28;20041;-58
2022/03/15 00:07:13;;;;;;;33.17;19.80;;;;;;;7.29;87.86;102697.31;5035457;28;20172;-58
2022/03/15 00:09:39;;;;;;;31.38;19.90;;;;;;;7.23;88.43;102688.47;5035653;28;20040;-58
2022/03/15 00:12:05;;;;;;;29.80;18.63;;;;;;;7.20;88.44;102684.03;5035240;28;20337;-58
2022/03/15 00:14:30;;;;;;;32.00;19.98;;;;;;;7.22;88.33;102684.97;5035320;28;20033;-58
2022/03/15 00:16:55;;;;;;;29.00;18.48;;;;;;;7.21;88.38;102690.13;5035341;28;20452;-58
2022/03/15 00:19:21;;;;;;;32.42;19.90;;;;;;;7.21;88.28;102692.75;5035012;28;20057;-58
2022/03/15 00:21:46;;;;;;;35.53;19.50;;;;;;;7.20;88.23;102686.66;5035261;28;20091;-58
2022/03/15 00:24:11;;;;;;;31.00;19.98;;;;;;;7.00;88.36;102659.13;5035240;28;20036;-58
2022/03/15 00:26:37;;;;;;;31.92;19.77;;;;;;;7.20;88.35;102684.03;5035143;28;20040;-58
2022/03/15 00:29:02;;;;;;;30.13;19.63;;;;;;;7.14;88.75;102672.56;5035249;28;20051;-58
2022/03/15 00:31:28;;;;;;;28.15;19.38;;;;;;;7.20;88.69;102685.75;5035018;28;20033;-58
2022/03/15 00:33:53;;;;;;;31.30;19.17;;;;;;;7.19;88.58;102682.28;5035126;28;20033;-58
2022/03/15 00:36:18;;;;;;;30.55;18.83;;;;;;;7.15;88.57;102689.94;5035471;28;20108;-58
2022/03/15 00:38:44;;;;;;;34.75;19.58;;;;;;;7.10;88.53;102688.94;5034978;28;20064;-58
2022/03/15 00:41:09;;;;;;;33.65;19.02;;;;;;;7.07;88.91;102686.25;5035305;28;20419;-58
2022/03/15 00:43:35;;;;;;;34.22;19.50;;;;;;;7.05;89.22;102683.59;5035045;28;20049;-58
2022/03/15 00:46:02;;;;;;;33.83;20.05;;;;;;;7.09;89.15;102680.25;5034771;28;20029;-58
2022/03/15 00:48:27;;;;;;;32.70;20.15;;;;;;;7.12;89.03;102685.53;5034896;28;20112;-59
2022/03/15 00:50:54;;;;;;;34.38;20.02;;;;;;;7.12;88.84;102675.09;5034769;28;20143;-58
2022/03/15 00:53:19;;;;;;;30.70;19.33;;;;;;;7.14;88.76;102677.75;5033718;28;20037;-58
2022/03/15 00:55:44;;;;;;;31.73;19.65;;;;;;;7.15;88.96;102680.41;5034735;28;20072;-58
2022/03/15 00:58:10;;;;;;;31.45;19.58;;;;;;;7.13;88.77;102670.78;5034843;28;20033;-58
2022/03/15 01:00:36;;;;;;;31.63;19.27;;;;;;;7.15;88.62;102663.91;5034619;28;20418;-57
2022/03/15 01:03:05;;;;;;;32.50;20.00;;;;;;;7.17;88.78;102668.31;5034687;28;20037;-58
2022/03/15 01:05:31;;;;;;;31.20;19.95;;;;;;;7.06;88.62;102669.75;5034696;28;20055;-57
2022/03/15 01:07:56;;;;;;;34.25;20.02;;;;;;;7.10;88.70;102670.72;5034731;28;20029;-58
2022/03/15 01:10:22;;;;;;;34.65;20.77;;;;;;;7.10;88.98;102671.56;5034713;28;20068;-57
2022/03/15 01:12:47;;;;;;;30.85;19.50;;;;;;;7.05;88.84;102667.97;5034520;28;20107;-57
2022/03/15 01:15:12;;;;;;;32.42;19.25;;;;;;;7.12;89.05;102680.31;5034455;28;20034;-58
2022/03/15 01:17:38;;;;;;;36.38;20.02;;;;;;;7.11;88.55;102680.25;5034821;28;20026;-58
2022/03/15 01:20:05;;;;;;;33.25;18.98;;;;;;;7.11;88.23;102681.16;5034416;28;20418;-58
2022/03/15 01:22:30;;;;;;;29.40;19.67;;;;;;;7.11;88.38;102680.25;5034428;28;20455;-58
2022/03/15 01:24:56;;;;;;;31.00;18.20;;;;;;;7.10;88.18;102671.56;5034486;28;20034;-58
2022/03/15 01:27:21;;;;;;;31.70;17.67;;;;;;;7.11;87.93;102670.72;5034834;28;20053;-58
2022/03/15 01:29:47;;;;;;;32.65;18.20;;;;;;;7.08;88.19;102665.47;5034877;28;20036;-58
2022/03/15 01:32:12;;;;;;;30.55;18.27;;;;;;;7.07;87.74;102658.50;5037908;28;20029;-60
2022/03/15 01:34:37;;;;;;;30.70;17.65;;;;;;;7.05;87.51;102638.44;5038286;28;20033;-58
2022/03/15 01:37:03;;;;;;;28.65;18.40;;;;;;;7.11;87.64;102649.91;5038124;28;20393;-58
2022/03/15 01:39:28;;;;;;;29.00;17.17;;;;;;;7.10;87.86;102655.94;5038361;28;20030;-58
2022/03/15 01:41:54;;;;;;;26.83;17.33;;;;;;;7.04;88.26;102644.50;5038185;28;20530;-61
2022/03/15 01:44:21;;;;;;;29.08;17.77;;;;;;;7.07;88.46;102648.06;5037944;28;20407;-59
2022/03/15 01:46:48;;;;;;;28.73;17.65;;;;;;;7.05;88.26;102644.53;5037713;28;20442;-58
2022/03/15 01:49:14;;;;;;;28.88;17.20;;;;;;;7.02;88.41;102647.06;5037718;28;20083;-58
2022/03/15 01:51:41;;;;;;;26.70;16.80;;;;;;;6.93;88.56;102638.94;5038277;28;20029;-58
2022/03/15 01:54:08;;;;;;;30.67;16.95;;;;;;;6.99;88.44;102639.16;5038042;28;20026;-58
2022/03/15 01:56:34;;;;;;;28.73;17.60;;;;;;;6.90;88.49;102636.28;5037958;28;20052;-58
2022/03/15 01:59:00;;;;;;;28.08;16.83;;;;;;;6.96;87.97;102626.03;5037748;28;20065;-58
2022/03/15 02:01:26;;;;;;;30.65;17.08;;;;;;;6.99;87.72;102636.53;5038027;28;20196;-58
2022/03/15 02:03:51;;;;;;;30.92;18.27;;;;;;;6.96;88.05;102632.13;5037836;28;20036;-58
2022/03/15 02:06:17;;;;;;;24.58;16.42;;;;;;;7.01;87.96;102632.25;5037677;28;20032;-57
2022/03/15 02:08:42;;;;;;;26.60;15.93;;;;;;;6.93;88.12;102637.22;5037494;28;20033;-58
2022/03/15 02:11:08;;;;;;;28.42;16.52;;;;;;;6.89;87.69;102631.91;5037583;28;20068;-58
2022/03/15 02:13:34;;;;;;;25.77;16.33;;;;;;;6.94;88.07;102631.19;5037242;28;20029;-58
2022/03/15 02:15:59;;;;;;;28.15;16.45;;;;;;;6.93;88.07;102633.75;5037184;28;20055;-58
2022/03/15 02:18:26;;;;;;;26.98;15.68;;;;;;;6.96;88.04;102632.13;5037104;28;20057;-59
2022/03/15 02:20:52;;;;;;;25.88;16.20;;;;;;;6.81;87.88;102612.56;5037405;28;20108;-59
2022/03/15 02:23:17;;;;;;;25.10;16.30;;;;;;;6.94;87.89;102617.28;5037985;28;20132;-58
2022/03/15 02:25:43;;;;;;;26.15;16.30;;;;;;;6.89;88.14;102613.69;5037504;28;20436;-59
2022/03/15 02:28:08;;;;;;;27.90;16.58;;;;;;;6.86;88.17;102611.00;5036940;28;20057;-59
2022/03/15 02:30:34;;;;;;;24.02;16.05;;;;;;;6.84;88.25;102612.66;5037567;28;20032;-59
2022/03/15 02:32:59;;;;;;;27.23;16.65;;;;;;;6.84;88.73;102607.47;5036925;28;20362;-59
2022/03/15 02:35:25;;;;;;;26.55;16.48;;;;;;;6.81;88.12;102602.16;5037349;28;20048;-58
2022/03/15 02:37:50;;;;;;;26.60;16.50;;;;;;;6.78;88.55;102599.44;5037160;28;20026;-59
2022/03/15 02:40:15;;;;;;;25.90;16.48;;;;;;;6.79;88.83;102606.44;5037159;28;20034;-58
2022/03/15 02:42:41;;;;;;;25.70;15.48;;;;;;;6.78;88.40;102609.88;5034810;28;20049;-60
2022/03/15 02:45:07;;;;;;;32.40;16.55;;;;;;;6.76;88.57;102612.41;5036810;28;20037;-59
2022/03/15 02:47:32;;;;;;;23.35;15.50;;;;;;;6.78;88.89;102605.53;5037153;28;20428;-58
2022/03/15 02:49:58;;;;;;;24.42;16.27;;;;;;;6.76;88.30;102599.41;5037001;28;20025;-58
2022/03/15 02:52:24;;;;;;;27.65;15.75;;;;;;;6.71;88.69;102595.81;5036721;28;20117;-58
2022/03/15 02:54:49;;;;;;;28.90;16.17;;;;;;;6.73;89.28;102590.66;5036723;28;20403;-58
2022/03/15 02:57:16;;;;;;;26.00;16.48;;;;;;;6.72;88.56;102592.38;5036734;28;20113;-59
2022/03/15 02:59:42;;;;;;;31.23;16.05;;;;;;;6.70;88.99;102583.63;5036821;28;20364;-58
2022/03/15 03:02:08;;;;;;;27.38;16.10;;;;;;;6.74;88.82;102584.63;5036702;28;20040;-59
2022/03/15 03:04:34;;;;;;;26.13;16.23;;;;;;;6.74;88.82;102577.69;5036596;28;20037;-59
2022/03/15 03:07:02;;;;;;;30.50;16.65;;;;;;;6.74;89.10;102567.28;5036678;28;20041;-60
2022/03/15 03:09:29;;;;;;;24.55;15.77;;;;;;;6.66;88.66;102560.06;5036671;28;20025;-59
2022/03/15 03:11:57;;;;;;;23.48;15.90;;;;;;;6.70;89.02;102562.81;5036559;28;20052;-59
2022/03/15 03:14:23;;;;;;;26.38;16.38;;;;;;;6.71;88.87;102564.59;5036340;28;20033;-58
2022/03/15 03:16:48;;;;;;;27.80;16.70;;;;;;;6.70;88.73;102560.22;5036215;28;20045;-58
2022/03/15 03:19:13;;;;;;;27.50;16.30;;;;;;;6.70;88.31;102552.41;5036608;28;20053;-59
2022/03/15 03:21:39;;;;;;;26.33;16.27;;;;;;;6.68;88.57;102561.00;5036395;28;20049;-58
2022/03/15 03:24:06;;;;;;;27.67;16.83;;;;;;;6.70;88.81;102557.63;5036341;28;20037;-59
2022/03/15 03:26:34;;;;;;;27.02;15.70;;;;;;;6.67;88.98;102556.63;5035265;28;20042;-59
2022/03/15 03:28:59;;;;;;;26.85;15.93;;;;;;;6.70;88.78;102548.94;5034947;28;20021;-59
2022/03/15 03:31:25;;;;;;;25.75;15.18;;;;;;;6.69;88.70;102548.03;5036311;28;20112;-59
2022/03/15 03:33:50;;;;;;;23.95;15.43;;;;;;;6.67;89.13;102547.13;5035270;28;20108;-59
2022/03/15 03:36:16;;;;;;;23.63;15.23;;;;;;;6.67;89.27;102548.84;5036023;28;20041;-58
2022/03/15 03:38:42;;;;;;;24.25;15.20;;;;;;;6.63;89.26;102540.94;5035723;28;20029;-60
2022/03/15 03:41:07;;;;;;;25.40;15.18;;;;;;;6.64;89.09;102553.09;5035851;28;20439;-59
2022/03/15 03:43:33;;;;;;;27.40;15.75;;;;;;;6.60;89.21;102545.16;5035841;28;20029;-59
2022/03/15 03:45:59;;;;;;;28.23;15.50;;;;;;;6.59;89.31;102551.19;5035750;28;20025;-59
2022/03/15 03:48:25;;;;;;;23.70;14.70;;;;;;;6.63;89.61;102553.94;5035709;28;20029;-59
2022/03/15 03:50:51;;;;;;;31.23;15.45;;;;;;;6.61;88.88;102550.41;5035907;28;20352;-59
2022/03/15 03:53:18;;;;;;;24.48;15.15;;;;;;;6.64;88.90;102554.81;5035467;28;20084;-58
2022/03/15 03:55:44;;;;;;;23.48;14.80;;;;;;;6.61;88.87;102537.41;5035509;28;20428;-60
2022/03/15 03:58:10;;;;;;;26.08;15.20;;;;;;;6.62;89.18;102540.88;5036029;28;20048;-59
2022/03/15 04:00:35;;;;;;;24.65;14.80;;;;;;;6.60;88.84;102537.34;5035369;28;20453;-59
2022/03/15 04:03:00;;;;;;;24.27;15.32;;;;;;;6.63;88.45;102534.84;5035760;28;20126;-58
2022/03/15 04:05:30;;;;;;;25.13;15.50;;;;;;;6.63;88.64;102537.44;5035723;28;20349;-59
2022/03/15 04:07:56;;;;;;;23.33;15.05;;;;;;;6.64;88.65;102547.00;5035481;28;20099;-58
2022/03/15 04:10:22;;;;;;;25.17;15.20;;;;;;;6.59;87.68;102543.38;5035578;28;20037;-59
2022/03/15 04:12:47;;;;;;;24.17;14.75;;;;;;;6.48;88.03;102539.59;5035665;28;20111;-60
2022/03/15 04:15:13;;;;;;;24.63;15.23;;;;;;;6.52;88.50;102542.34;5035205;28;20424;-59
2022/03/15 04:17:38;;;;;;;27.33;15.52;;;;;;;6.50;88.23;102546.59;5035217;28;20037;-59
2022/03/15 04:20:04;;;;;;;27.33;16.08;;;;;;;6.50;88.29;102558.72;5035028;28;20077;-59
2022/03/15 04:22:29;;;;;;;27.38;16.08;;;;;;;6.47;88.60;102548.22;5035151;28;20037;-58
2022/03/15 04:24:55;;;;;;;25.95;14.80;;;;;;;6.47;89.07;102551.72;5034998;28;20041;-59
2022/03/15 04:27:20;;;;;;;28.73;17.50;;;;;;;6.43;89.43;102552.44;5034786;28;20087;-58
2022/03/15 04:29:45;;;;;;;24.23;15.57;;;;;;;6.44;89.14;102549.00;5035022;28;20036;-59
2022/03/15 04:32:11;;;;;;;23.63;15.43;;;;;;;6.47;88.93;102556.03;5035075;28;20072;-59
2022/03/15 04:34:37;;;;;;;27.85;16.02;;;;;;;6.48;89.05;102550.88;5035084;28;20090;-59
2022/03/15 04:37:02;;;;;;;25.45;15.23;;;;;;;6.36;89.29;102547.91;5035175;28;20043;-58
2022/03/15 04:39:27;;;;;;;24.33;15.52;;;;;;;6.30;89.48;102547.72;5034043;28;20051;-59
2022/03/15 04:41:53;;;;;;;25.50;15.57;;;;;;;6.37;89.53;102549.69;5034840;28;20030;-59
2022/03/15 04:44:18;;;;;;;25.30;15.32;;;;;;;6.35;89.65;102553.94;5034809;28;20036;-58
2022/03/15 04:46:43;;;;;;;25.40;15.00;;;;;;;6.34;90.18;102538.28;5035018;28;20026;-58
2022/03/15 04:49:09;;;;;;;24.58;15.25;;;;;;;6.34;90.38;102539.19;5035237;28;20029;-58
2022/03/15 04:51:34;;;;;;;24.92;15.60;;;;;;;6.36;89.84;102536.63;5034923;28;20040;-59
2022/03/15 04:54:00;;;;;;;29.13;15.40;;;;;;;6.33;89.38;102528.72;5034890;28;20036;-59
2022/03/15 04:56:25;;;;;;;20.70;14.20;;;;;;;6.40;89.71;102538.50;5034591;28;20052;-59
2022/03/15 04:58:51;;;;;;;25.67;14.73;;;;;;;6.40;89.12;102536.78;5034301;28;20030;-59
2022/03/15 05:01:17;;;;;;;30.23;15.55;;;;;;;6.37;88.93;102534.06;5034602;28;20314;-59
2022/03/15 05:03:42;;;;;;;22.13;14.15;;;;;;;6.37;89.95;102528.88;5034835;28;20038;-59
2022/03/15 05:06:07;;;;;;;24.38;14.80;;;;;;;6.30;89.93;102532.09;5038349;28;20107;-59
2022/03/15 05:08:33;;;;;;;25.08;15.18;;;;;;;6.27;89.80;102522.50;5038900;28;20514;-59
2022/03/15 05:11:07;;;;;;;23.27;14.32;;;;;;;6.20;89.92;102517.06;5038575;28;20029;-58
2022/03/15 05:13:46;;;;;;;23.98;14.05;;;;;;;6.31;89.98;102523.47;5037717;28;20041;-58
2022/03/15 05:16:18;;;;;;;20.33;14.73;;;;;;;6.29;89.54;102514.75;5038395;28;20419;-58
2022/03/15 05:18:45;;;;;;;23.48;14.93;;;;;;;6.27;89.95;102517.28;5038615;28;20080;-59
2022/03/15 05:21:16;;;;;;;27.15;14.70;;;;;;;6.26;90.25;102512.03;5037400;28;20033;-60
2022/03/15 05:23:45;;;;;;;23.45;14.60;;;;;;;6.29;90.21;102515.63;5038712;28;20124;-59
2022/03/15 05:26:11;;;;;;;26.38;14.82;;;;;;;6.18;90.46;102517.03;5038268;28;20043;-58
2022/03/15 05:28:37;;;;;;;21.67;14.40;;;;;;;6.20;90.58;102519.66;5038423;28;20033;-58
2022/03/15 05:31:03;;;;;;;23.33;14.15;;;;;;;6.22;90.23;102518.00;5039101;28;20040;-59
2022/03/15 05:33:28;;;;;;;26.40;15.05;;;;;;;6.26;90.21;102519.84;5038531;28;20364;-59
2022/03/15 05:35:54;;;;;;;22.25;14.15;;;;;;;6.23;89.68;102511.97;5038193;28;20057;-59
2022/03/15 05:38:20;;;;;;;22.20;13.60;;;;;;;6.29;89.75;102507.81;5038901;28;20033;-59
2022/03/15 05:40:45;;;;;;;24.27;14.15;;;;;;;6.30;89.37;102506.09;5037942;28;20052;-59
2022/03/15 05:43:11;;;;;;;26.83;14.45;;;;;;;6.31;89.01;102496.59;5038491;28;20029;-59
2022/03/15 05:45:36;;;;;;;27.08;14.45;;;;;;;6.28;89.35;102502.56;5038225;28;20038;-59
2022/03/15 05:48:01;;;;;;;26.00;14.38;;;;;;;6.34;88.75;102494.09;5037888;28;20357;-59
2022/03/15 05:50:27;;;;;;;24.02;13.23;;;;;;;6.36;88.87;102495.03;5038072;28;20029;-59
2022/03/15 05:52:52;;;;;;;26.63;14.63;;;;;;;6.37;88.85;102496.78;5037854;28;20340;-59
2022/03/15 05:55:18;;;;;;;25.25;13.23;;;;;;;6.35;88.45;102488.06;5037362;28;20428;-58
2022/03/15 05:57:44;;;;;;;20.30;13.57;;;;;;;6.31;88.23;102489.69;5036848;28;20037;-60
2022/03/15 06:00:10;;;;;;;27.33;14.02;;;;;;;6.23;88.46;102484.22;5043091;28;20099;-59
2022/03/15 06:02:36;;;;;;;25.02;14.13;;;;;;;6.26;88.49;102493.84;5037359;28;20049;-59
2022/03/15 06:05:03;;;;;;;24.48;12.98;;;;;;;6.29;87.97;102494.81;5037301;28;20119;-58
2022/03/15 06:07:29;;;;;;;21.35;13.40;;;;;;;6.31;87.92;102488.78;5037562;28;20412;-59
2022/03/15 06:09:55;;;;;;;24.15;14.05;;;;;;;6.27;87.94;102491.28;5037066;28;20448;-58
2022/03/15 06:12:21;;;;;;;25.65;14.35;;;;;;;6.21;88.58;102488.53;5037770;28;20025;-58
2022/03/15 06:14:46;;;;;;;21.85;13.38;;;;;;;6.30;88.39;102490.50;5037753;28;20029;-58
2022/03/15 06:17:12;;;;;;;22.88;13.40;;;;;;;6.27;88.11;102485.22;5036071;28;20041;-58
2022/03/15 06:19:37;;;;;;;20.90;13.40;;;;;;;6.31;88.30;102492.28;5037318;28;20053;-58
2022/03/15 06:22:03;;;;;;;27.17;14.25;;;;;;;6.29;88.04;102475.75;5037304;28;20037;-58
2022/03/15 06:24:29;;;;;;;24.42;14.40;;;;;;;6.33;88.15;102477.59;5037608;28;20060;-58
2022/03/15 06:26:55;;;;;;;24.60;13.98;;;;;;;6.42;87.29;102479.59;5037099;28;20041;-58
2022/03/15 06:29:20;;;;;;;23.42;13.57;;;;;;;6.44;86.82;102478.81;5037534;28;20029;-58
2022/03/15 06:31:45;;;;;;;21.67;13.13;;;;;;;6.45;86.51;102485.75;5037526;28;20345;-58
2022/03/15 06:34:11;;;;;;;27.63;14.10;;;;;;;6.48;86.35;102478.06;5036156;28;20368;-59
2022/03/15 06:36:36;;;;;;;23.52;13.43;;;;;;;6.50;85.83;102484.19;5036713;28;20072;-58
2022/03/15 06:39:03;;;;;;;21.75;13.60;;;;;;;6.50;86.17;102488.50;5036794;28;20514;-58
2022/03/15 06:41:30;;;;;;;22.63;14.32;;;;;;;6.50;85.54;102480.72;5037152;28;20035;-58
2022/03/15 06:43:55;;;;;;;22.45;13.85;;;;;;;6.52;85.59;102472.13;5037190;28;20033;-58
2022/03/15 06:46:20;;;;;;;23.20;13.88;;;;;;;6.56;85.47;102473.09;5037164;28;20329;-59
2022/03/15 06:48:46;;;;;;;23.42;14.27;;;;;;;6.57;84.98;102470.53;5036732;28;20043;-59
2022/03/15 06:51:11;;;;;;;22.38;13.98;;;;;;;6.61;85.01;102464.56;5036425;28;20021;-58
2022/03/15 06:53:37;;;;;;;21.45;13.40;;;;;;;6.61;84.93;102463.69;5036806;28;20022;-58
2022/03/15 06:56:02;;;;;;;25.08;13.98;;;;;;;6.67;84.42;102466.47;5036982;28;20037;-58
2022/03/15 06:58:27;;;;;;;23.75;14.00;;;;;;;6.68;84.51;102469.97;5036243;28;20052;-58
2022/03/15 07:00:55;;;;;;;24.27;13.38;;;;;;;6.71;84.13;102463.13;5036867;28;20080;-58
2022/03/15 07:03:20;;;;;;;23.27;13.00;;;;;;;6.71;83.75;102459.66;5036798;28;20044;-58
2022/03/15 07:05:45;;;;;;;23.08;13.30;;;;;;;6.72;83.74;102458.81;5036506;28;20041;-58
2022/03/15 07:08:11;;;;;;;21.50;12.65;;;;;;;6.72;82.98;102458.81;5036977;28;20400;-58
2022/03/15 07:10:36;;;;;;;20.02;11.93;;;;;;;6.76;83.54;102452.81;5036522;28;20041;-59
2022/03/15 07:13:01;;;;;;;18.60;11.13;;;;;;;6.82;82.52;102453.91;5036158;28;20432;-60
2022/03/15 07:15:27;;;;;;;20.48;11.35;;;;;;;6.82;82.22;102459.09;5035977;28;20360;-60
2022/03/15 07:17:54;;;;;;;18.95;11.60;;;;;;;6.82;82.41;102456.50;5036148;28;20458;-61
2022/03/15 07:20:21;;;;;;;16.98;11.20;;;;;;;6.89;82.47;102452.34;5036020;28;20136;-61
2022/03/15 07:22:47;;;;;;;22.95;11.32;;;;;;;6.85;82.03;102446.19;5035996;28;20068;-61
2022/03/15 07:25:13;;;;;;;22.25;12.13;;;;;;;6.90;82.27;102454.13;5036402;28;20065;-60
2022/03/15 07:27:38;;;;;;;26.98;12.20;;;;;;;6.98;81.91;102456.06;5036123;28;20463;-60
2022/03/15 07:30:04;;;;;;;21.42;11.82;;;;;;;6.98;81.96;102453.47;5036140;28;20025;-61
2022/03/15 07:32:30;;;;;;;21.90;11.15;;;;;;;6.97;81.71;102448.22;5035883;28;20385;-61
2022/03/15 07:34:55;;;;;;;19.98;11.35;;;;;;;7.03;81.99;102448.41;5035732;28;20075;-60
2022/03/15 07:37:20;;;;;;;22.17;10.90;;;;;;;7.05;81.87;102445.84;5035925;28;20033;-61
2022/03/15 07:39:46;;;;;;;23.40;11.40;;;;;;;7.08;81.60;102449.41;5035802;28;20409;-61
2022/03/15 07:42:12;;;;;;;22.70;10.82;;;;;;;7.14;81.15;102448.66;5035888;28;20083;-61
2022/03/15 07:44:37;;;;;;;20.60;11.43;;;;;;;7.13;81.17;102447.78;5035676;28;20022;-60
2022/03/15 07:47:03;;;;;;;23.13;11.60;;;;;;;7.16;81.24;102445.28;5035924;28;20036;-60
2022/03/15 07:49:28;;;;;;;20.30;11.15;;;;;;;7.21;80.96;102445.41;5035624;28;20116;-60
2022/03/15 07:51:53;;;;;;;20.63;10.43;;;;;;;7.23;80.64;102448.94;5035527;28;20440;-61
2022/03/15 07:54:19;;;;;;;17.50;10.18;;;;;;;7.27;80.54;102437.75;5035440;28;20029;-61
2022/03/15 07:56:44;;;;;;;19.88;11.13;;;;;;;7.25;80.41;102436.84;5035290;28;20048;-59
2022/03/15 07:59:10;;;;;;;20.98;10.73;;;;;;;7.32;80.34;102450.03;5035446;28;20448;-59
2022/03/15 08:01:35;;;;;;;18.80;10.68;;;;;;;7.35;79.90;102444.03;5035752;28;20089;-60
2022/03/15 08:04:01;;;;;;;18.23;10.30;;;;;;;7.38;80.03;102440.63;5034189;28;20033;-61
2022/03/15 08:06:27;;;;;;;20.30;9.75;;;;;;;7.40;79.92;102429.41;5035383;28;20044;-60
2022/03/15 08:08:57;;;;;;;19.88;9.98;;;;;;;7.42;79.75;102432.06;5035525;28;20191;-60
2022/03/15 08:11:24;;;;;;;18.80;9.85;;;;;;;7.43;79.45;102423.41;5035582;28;20033;-60
2022/03/15 08:13:51;;;;;;;19.10;9.55;;;;;;;7.52;78.96;102428.81;5035324;28;20087;-60
2022/03/15 08:16:17;;;;;;;18.58;9.70;;;;;;;7.54;79.10;102417.59;5035423;28;20025;-60
2022/03/15 08:18:42;;;;;;;18.25;9.15;;;;;;;7.55;78.92;102418.47;5034926;28;20072;-60
2022/03/15 08:21:08;;;;;;;14.35;8.93;;;;;;;7.58;78.84;102415.94;5035156;28;20044;-60
2022/03/15 08:23:33;;;;;;;18.25;8.60;;;;;;;7.62;78.49;102412.53;5035311;28;20034;-60
2022/03/15 08:25:58;;;;;;;19.98;8.68;;;;;;;7.64;78.55;102421.28;5034000;28;20099;-60
2022/03/15 08:28:25;;;;;;;14.02;8.10;;;;;;;7.68;78.31;102405.78;5035190;28;20030;-60
2022/03/15 08:30:51;;;;;;;17.20;8.55;;;;;;;7.75;78.30;102419.84;5035186;28;20032;-60
2022/03/15 08:33:17;;;;;;;19.17;8.55;;;;;;;7.75;77.76;102409.41;5034766;28;20466;-61
2022/03/15 08:35:43;;;;;;;18.25;7.82;;;;;;;7.79;77.98;102394.72;5034956;28;20044;-61
2022/03/15 08:38:08;;;;;;;16.08;8.23;;;;;;;7.87;77.39;102408.81;5034918;28;20356;-51
2022/03/15 08:40:34;;;;;;;17.20;8.32;;;;;;;7.91;77.61;102388.06;5034397;28;20029;-60
2022/03/15 08:43:00;;;;;;;14.93;8.40;;;;;;;7.95;77.50;102392.50;5034821;28;20040;-60
2022/03/15 08:45:26;;;;;;;20.92;7.70;;;;;;;7.98;77.07;102402.97;5034873;28;20445;-60
2022/03/15 08:47:52;;;;;;;14.13;6.97;;;;;;;8.07;77.24;102396.22;5034678;28;20152;-60
2022/03/15 08:50:18;;;;;;;18.00;8.13;;;;;;;8.10;76.71;102397.16;5035277;28;20029;-60
2022/03/15 08:52:44;;;;;;;15.63;7.82;;;;;;;8.10;76.61;102388.47;5034688;28;20029;-60
2022/03/15 08:55:09;;;;;;;17.95;7.13;;;;;;;8.18;76.83;102385.16;5034430;28;20108;-60
2022/03/15 08:57:35;;;;;;;15.27;7.93;;;;;;;8.25;76.58;102387.06;5034806;28;20117;-60
2022/03/15 09:00:00;;;;;;;15.68;7.45;;;;;;;8.30;75.67;102393.25;5035094;28;20037;-60
2022/03/15 09:02:25;;;;;;;11.98;6.93;;;;;;;8.30;75.36;102387.16;5033366;28;20069;-60
2022/03/15 09:04:51;;;;;;;16.48;7.35;;;;;;;8.31;75.78;102379.34;5034519;28;20029;-62
2022/03/15 09:07:16;;;;;;;15.00;7.50;;;;;;;8.37;75.44;102376.91;5034169;28;20037;-62
2022/03/15 09:09:41;;;;;;;16.65;7.55;;;;;;;8.43;75.01;102383.97;5034654;28;20088;-61
2022/03/15 09:12:07;;;;;;;18.25;7.93;;;;;;;8.43;75.42;102376.16;5034707;28;20083;-62
2022/03/15 09:14:32;;;;;;;17.02;7.80;;;;;;;8.49;75.24;102372.75;5034615;28;20037;-61
2022/03/15 09:16:58;;;;;;;14.55;7.00;;;;;;;8.54;75.04;102373.75;5034720;28;20033;-61
2022/03/15 09:19:24;;;;;;;14.00;6.85;;;;;;;8.60;75.04;102376.47;5033883;28;20137;-62
2022/03/15 09:21:50;;;;;;;11.68;6.90;;;;;;;8.63;74.65;102376.53;5034336;28;20025;-61
2022/03/15 09:24:16;;;;;;;14.10;7.22;;;;;;;8.64;74.56;102373.09;5034474;28;20041;-62
2022/03/15 09:26:42;;;;;;;13.88;7.20;;;;;;;8.68;73.76;102378.38;5034860;28;20356;-61
2022/03/15 09:29:09;;;;;;;14.63;6.68;;;;;;;8.73;74.08;102381.06;5031875;28;20456;-63
2022/03/15 09:31:35;;;;;;;12.43;7.05;;;;;;;8.75;74.70;102384.59;5033198;28;20056;-61
2022/03/15 09:34:01;;;;;;;10.88;6.45;;;;;;;8.81;74.05;102383.84;5034425;28;20029;-62
2022/03/15 09:36:26;;;;;;;17.48;6.80;;;;;;;8.84;73.29;102379.53;5034349;28;20076;-63
2022/03/15 09:38:52;;;;;;;11.57;6.72;;;;;;;8.87;73.11;102373.50;5034707;28;20057;-62
2022/03/15 09:41:18;;;;;;;16.70;7.40;;;;;;;8.94;72.82;102380.59;5034291;28;20363;-63
2022/03/15 09:43:45;;;;;;;14.68;7.30;;;;;;;9.01;72.92;102377.22;5033925;28;20034;-63
2022/03/15 09:46:12;;;;;;;14.32;6.82;;;;;;;9.08;72.89;102379.09;5034348;28;20151;-64
2022/03/15 09:48:39;;;;;;;15.00;7.20;;;;;;;9.10;72.30;102368.69;5034557;28;20022;-62
2022/03/15 09:51:06;;;;;;;13.90;6.43;;;;;;;9.22;72.45;102377.59;5036042;28;20139;-62
2022/03/15 09:53:36;;;;;;;16.58;6.50;;;;;;;9.31;71.69;102379.50;5037667;28;20048;-62
2022/03/15 09:56:02;;;;;;;16.48;6.70;;;;;;;9.37;71.06;102372.63;5037723;28;20037;-63
2022/03/15 09:58:27;;;;;;;13.38;7.22;;;;;;;9.46;70.79;102379.75;5037891;28;20112;-63
2022/03/15 10:00:54;;;;;;;15.65;6.78;;;;;;;9.53;70.70;102373.72;5037376;28;20103;-63
2022/03/15 10:03:21;;;;;;;14.90;7.00;;;;;;;9.52;71.76;102372.00;5037346;28;20461;-62
2022/03/15 10:05:49;;;;;;;15.25;7.68;;;;;;;9.48;72.30;102371.94;5037646;28;20091;-63
2022/03/15 10:08:15;;;;;;;14.57;7.72;;;;;;;9.50;72.27;102370.22;5037838;28;20329;-62
2022/03/15 10:10:41;;;;;;;14.50;7.53;;;;;;;9.50;72.27;102373.72;5037699;28;20061;-62
2022/03/15 10:13:08;;;;;;;14.85;7.40;;;;;;;9.50;72.39;102360.66;5037683;28;20080;-63
2022/03/15 10:15:34;;;;;;;15.32;7.18;;;;;;;9.61;72.06;102366.91;5037212;28;20040;-62
2022/03/15 10:18:06;;;;;;;13.48;7.38;;;;;;;9.75;71.38;102349.69;5037132;28;20029;-62
2022/03/15 10:20:41;;;;;;;11.23;6.78;;;;;;;9.90;71.49;102355.97;5037561;28;20080;-62
2022/03/15 10:23:10;;;;;;;14.80;6.70;;;;;;;9.98;71.23;102350.00;5037402;28;20052;-62
2022/03/15 10:25:37;;;;;;;18.30;7.78;;;;;;;10.06;70.64;102343.13;5037390;28;20117;-61
2022/03/15 10:28:07;;;;;;;16.05;7.22;;;;;;;10.17;69.80;102345.88;5036873;28;20029;-61
2022/03/15 10:30:34;;;;;;;14.88;6.82;;;;;;;10.23;69.21;102338.13;5037353;28;20036;-62
2022/03/15 10:33:00;;;;;;;18.05;6.53;;;;;;;10.29;68.43;102346.06;5037083;28;20029;-61
2022/03/15 10:35:35;;;;;;;15.98;6.60;;;;;;;10.30;68.10;102337.34;5036648;28;20116;-62
2022/03/15 10:38:03;;;;;;;13.27;6.65;;;;;;;10.35;67.80;102338.28;5037130;28;20041;-61
2022/03/15 10:40:55;;;;;;;14.15;6.57;;;;;;;10.41;68.91;102332.22;5036990;28;20106;-62
2022/03/15 10:43:23;;;;;;;13.32;6.40;;;;;;;10.36;67.70;102324.34;5036068;28;20373;-62
2022/03/15 10:45:56;;;;;;;15.75;6.25;;;;;;;10.41;67.27;102327.00;5037098;28;20025;-62
2022/03/15 10:48:24;;;;;;;13.52;6.97;;;;;;;10.43;67.95;102320.03;5036775;28;20068;-61
2022/03/15 10:51:12;;;;;;;14.85;6.03;;;;;;;10.46;68.21;102314.84;5037072;28;20135;-62
2022/03/15 10:53:46;;;;;;;15.13;7.30;;;;;;;10.46;67.59;102323.56;5036924;28;20159;-62
2022/03/15 10:56:19;;;;;;;14.13;6.47;;;;;;;10.45;67.74;102313.97;5036524;28;20029;-61
2022/03/15 10:58:54;;;;;;;13.98;6.40;;;;;;;10.41;67.94;102304.31;5036619;28;20363;-62
2022/03/15 11:01:24;;;;;;;14.68;6.18;;;;;;;10.43;68.07;102304.34;5036372;28;20356;-62
2022/03/15 11:03:58;;;;;;;9.77;6.15;;;;;;;10.36;67.72;102294.69;5035996;28;20178;-61
2022/03/15 11:06:38;;;;;;;14.73;6.47;;;;;;;10.47;67.32;102298.28;5036573;28;20033;-62
2022/03/15 11:09:18;;;;;;;17.40;6.55;;;;;;;10.45;67.91;102306.13;5036811;28;20044;-61
2022/03/15 11:11:52;;;;;;;12.00;6.05;;;;;;;10.55;67.58;102304.47;5036442;28;20134;-61
2022/03/15 11:14:42;;;;;;;13.77;6.20;;;;;;;10.69;67.08;102296.75;5036479;28;20421;-62
2022/03/15 11:17:23;;;;;;;11.55;6.15;;;;;;;10.81;67.05;102291.63;5036442;28;20080;-60